Estación Meteorológica Peña el Pijo (Robertgarden) [ 12/17/17 01:40:12 CET ]

Fecha Hora Presion(HPa) Temp (°C) Humedad % Rocio (°C) Viento ( m/s) Direccion Lluvia 1Hora(mm) Lluvia 24H(mm) LLuvia Total(mm)
2017-Dec-05 01:01:51 1021.500 -5.0 72 -9.3         0.00
2017-Dec-05 02:01:44 1021.200 -5.1 74 -9.0         0.00
2017-Dec-05 03:01:44 1021.200 -5.2 75 -8.9         0.00
2017-Dec-05 04:05:28 1021.000 -5.5 76 -9.1         0.00
2017-Dec-05 05:01:43 1020.600 -5.8 76 -9.4         0.00
2017-Dec-05 06:01:42 1020.600 -6.1 76 -9.7         0.00
2017-Dec-05 07:01:27 1020.800 -6.4 76 -10.0         0.00
2017-Dec-05 08:01:48 1021.300 -7.2 77 -10.6         0.00
2017-Dec-05 09:01:32 1021.700 -7.4 77 -10.8         0.00
2017-Dec-05 10:01:55 1021.700 0.2 76 -3.5         0.00
2017-Dec-05 11:01:30 1022.000 5.6 50 -4.0         0.00
2017-Dec-05 12:01:15 1021.700 9.4 37 -4.8         0.00
2017-Dec-05 13:01:37 1020.700 10.7 31 -5.8         0.00
2017-Dec-05 14:02:01 1020.000 13.7 25 -6.2         0.00
2017-Dec-05 15:01:54 1019.700 13.6 22 -7.9         0.00
2017-Dec-05 16:01:55 1019.900 12.4 26 -6.8         0.00
2017-Dec-05 17:01:51 1020.100 9.1 31 -7.1         0.00
2017-Dec-05 18:01:57 1020.700 4.9 40 -7.6         0.00
2017-Dec-05 19:01:52 1021.000 0.6 51 -8.4         0.00
2017-Dec-05 20:01:50 1021.500 -1.3 58 -8.5         0.00
2017-Dec-05 21:02:09 1021.600 -1.7 61 -8.2         0.00
2017-Dec-05 22:01:53 1021.700 -2.4 63 -8.5         0.00
2017-Dec-05 23:01:42 1021.800 -3.1 65 -8.8         0.00

Temperatura Máxima:13°    Temperatura Mínima:-7°
Presión Máxima:1022.000 Hpa    Presión Mínima:1019.700 Hpa


Volver